»·PEaware :: DAL1008 KRNO-KSLC

DAL1008 :: KRNO-KSLC

FLIGHT INFORMATION

Flight Status: Arrived
Operator:
Delta Air Lines
More flights by this operator :: More flights under this callsign
Pilot: Elias V. (31096)
Aircraft: AIRBUS A319
(A319)
More flights by this aircraft type
Origin: KRNO Reno/Tahoe Intl
United States
Destination: KSLC Salt Lake City Intl
United States
More flights between these airports :: More routes between these airports
Route: +PVINE3 PYGOW LLC DCT BAM J154 BVL WAATS5
File this flight plan on PilotEdge
Remarks: First IFR PilotEdge flight. Go easy on me )
Altitude:
(Current/Filed)
37,000ft
Speed:
(Current/Filed)
455kts
Departed: 13-Aug-20 05:02 PM
Arrived: 13-Aug-20 06:04 PM
Distance/Time
Traveled:
365nm/1:01
Distance/Time
To Go:
Arrived

Flight Plot

Page will automatically refresh every two minutes.

Flight plan parsing failed; only flown route is shown


Map Options




Map Legend


Flown Route
Filed Route
Departure Airport
Arrival Airport
Navaid (VOR, NDB)
Fix

Horizontal Profiles

Position Reports

Time Latitude Longitude Heading Altitude Ground
Speed
13-Aug-20 16:35 39.504431 -119.774241 16 4424ft 0kts
13-Aug-20 16:36 39.504431 -119.774241 16 4424ft 0kts
13-Aug-20 16:37 39.504431 -119.774241 16 4424ft 0kts
13-Aug-20 16:38 39.504431 -119.774241 16 4424ft 0kts
13-Aug-20 16:39 39.504431 -119.774241 16 4424ft 0kts
13-Aug-20 16:40 39.504431 -119.774241 16 4424ft 0kts
13-Aug-20 16:41 39.504431 -119.774241 16 4424ft 0kts
13-Aug-20 16:42 39.504431 -119.774241 16 4424ft 0kts
13-Aug-20 16:43 39.504431 -119.774241 16 4424ft 0kts
13-Aug-20 16:44 39.504431 -119.774241 16 4424ft 0kts
13-Aug-20 16:45 39.504431 -119.774241 16 4424ft 0kts
13-Aug-20 16:46 39.504431 -119.774241 16 4424ft 0kts
13-Aug-20 16:47 39.504330 -119.774200 319 4424ft 2kts
13-Aug-20 16:48 39.503816 -119.773864 333 4424ft 0kts
13-Aug-20 16:49 39.503739 -119.773987 90 4424ft 0kts
13-Aug-20 16:50 39.503739 -119.773986 90 4424ft 0kts
13-Aug-20 16:51 39.503736 -119.772757 89 4424ft 14kts
13-Aug-20 16:52 39.503737 -119.772506 89 4424ft 0kts
13-Aug-20 16:53 39.503737 -119.772424 89 4424ft 3kts
13-Aug-20 16:54 39.499775 -119.771533 181 4424ft 24kts
13-Aug-20 16:55 39.493210 -119.771559 179 4424ft 22kts
13-Aug-20 16:56 39.489256 -119.770529 89 4424ft 0kts
13-Aug-20 16:57 39.489256 -119.770529 89 4424ft 0kts
13-Aug-20 16:58 39.489256 -119.770529 89 4424ft 0kts
13-Aug-20 16:59 39.489256 -119.770511 89 4424ft 1kts
13-Aug-20 17:00 39.489870 -119.766808 0 4424ft 10kts
13-Aug-20 17:01 39.506053 -119.766789 359 4424ft 160kts
13-Aug-20 17:02 39.554609 -119.766136 353 6335ft 188kts
13-Aug-20 17:03 39.613472 -119.751759 35 7981ft 263kts
13-Aug-20 17:04 39.677144 -119.685205 36 9858ft 313kts
13-Aug-20 17:05 39.748977 -119.610875 40 11085ft 360kts
13-Aug-20 17:06 39.819251 -119.514961 46 14086ft 373kts
13-Aug-20 17:07 39.890647 -119.414383 45 16786ft 386kts
13-Aug-20 17:08 39.964571 -119.310003 46 19257ft 399kts
13-Aug-20 17:09 40.025159 -119.188182 76 21471ft 413kts
13-Aug-20 17:10 40.049282 -119.039675 78 23448ft 425kts
13-Aug-20 17:11 40.074570 -118.885707 77 25231ft 438kts
13-Aug-20 17:12 40.100500 -118.728343 77 26950ft 448kts
13-Aug-20 17:13 40.128791 -118.567355 72 28521ft 456kts
13-Aug-20 17:14 40.171548 -118.409451 68 29933ft 463kts
13-Aug-20 17:15 40.215002 -118.251409 69 31101ft 472kts
13-Aug-20 17:16 40.259397 -118.088343 69 32198ft 478kts
13-Aug-20 17:17 40.304059 -117.923395 69 33216ft 483kts
13-Aug-20 17:18 40.348966 -117.756538 69 34157ft 488kts
13-Aug-20 17:19 40.394072 -117.587780 69 35014ft 492kts
13-Aug-20 17:20 40.438938 -117.418821 69 36117ft 488kts
13-Aug-20 17:21 40.483122 -117.251113 70 36896ft 487kts
13-Aug-20 17:22 40.527317 -117.082491 70 37136ft 488kts
13-Aug-20 17:23 40.566796 -116.910151 78 37137ft 499kts
13-Aug-20 17:24 40.581288 -116.727685 85 37138ft 502kts
13-Aug-20 17:25 40.592097 -116.543863 85 37139ft 502kts
13-Aug-20 17:26 40.602950 -116.360785 85 37138ft 502kts
13-Aug-20 17:27 40.613519 -116.177529 85 37146ft 502kts
13-Aug-20 17:28 40.623818 -115.994423 85 37154ft 502kts
13-Aug-20 17:29 40.633857 -115.810782 85 37156ft 502kts
13-Aug-20 17:30 40.643606 -115.627138 86 37156ft 502kts
13-Aug-20 17:31 40.653055 -115.443465 86 37154ft 502kts
13-Aug-20 17:32 40.662200 -115.260396 86 36839ft 500kts
13-Aug-20 17:33 40.670999 -115.079312 86 35882ft 495kts
13-Aug-20 17:34 40.679609 -114.896082 86 34924ft 505kts
13-Aug-20 17:35 40.687677 -114.711744 86 33956ft 503kts
13-Aug-20 17:36 40.695599 -114.529122 86 32989ft 495kts
13-Aug-20 17:37 40.703101 -114.349872 86 31924ft 487kts
13-Aug-20 17:38 40.710212 -114.172940 87 30034ft 477kts
13-Aug-20 17:39 40.716875 -114.001551 86 28394ft 459kts
13-Aug-20 17:40 40.723120 -113.836301 86 26863ft 442kts
13-Aug-20 17:41 40.726012 -113.676797 89 25367ft 428kts
13-Aug-20 17:43 40.725585 -113.522141 89 23893ft 416kts
13-Aug-20 17:44 40.725186 -113.370843 89 22399ft 406kts
13-Aug-20 17:45 40.724634 -113.224272 90 20945ft 395kts
13-Aug-20 17:46 40.723926 -113.081069 90 19433ft 385kts
13-Aug-20 17:47 40.723127 -112.941751 90 17941ft 375kts
13-Aug-20 17:48 40.722030 -112.802879 91 17025ft 388kts
13-Aug-20 17:49 40.720769 -112.660493 91 17023ft 388kts
13-Aug-20 17:50 40.722085 -112.518191 82 17023ft 388kts
13-Aug-20 17:51 40.744560 -112.378667 76 17023ft 388kts
13-Aug-20 17:52 40.764612 -112.240839 86 16812ft 366kts
13-Aug-20 17:53 40.746535 -112.121917 137 16072ft 313kts
13-Aug-20 17:54 40.675179 -112.082473 180 15383ft 262kts
13-Aug-20 17:55 40.601072 -112.074832 177 12383ft 282kts
13-Aug-20 17:56 40.526890 -112.066127 177 12019ft 258kts
13-Aug-20 17:57 40.475690 -112.019688 88 11195ft 255kts
13-Aug-20 17:58 40.522849 -111.968215 1 9970ft 224kts
13-Aug-20 17:59 40.583749 -111.973033 353 8092ft 214kts
13-Aug-20 18:00 40.642761 -111.979925 353 6845ft 204kts
13-Aug-20 18:01 40.691821 -111.985702 353 5855ft 152kts
13-Aug-20 18:02 40.732141 -111.990464 353 5117ft 144kts
13-Aug-20 18:02 40.765411 -111.994355 354 4477ft 143kts
13-Aug-20 18:03 40.795965 -111.997822 0 4225ft 38kts
13-Aug-20 18:04 40.798280 -111.996799 44 4228ft 0kts
13-Aug-20 18:06 40.796329 -111.995745 175 4226ft 23kts
13-Aug-20 18:06 40.794225 -111.995503 175 4225ft 15kts
13-Aug-20 18:07 40.791084 -111.992529 84 4225ft 16kts
13-Aug-20 18:08 40.788983 -111.987406 174 4225ft 21kts
13-Aug-20 18:09 40.787255 -111.985037 74 4225ft 0kts
13-Aug-20 18:10 40.787255 -111.985035 74 4225ft 0kts

Navigation Log

Ident Type
Flight plan parsing failed, navigation log unavailable